createdAt,value
2022-08-18T00:03:59.383Z,3.30
2022-08-18T00:09:08.160Z,3.03
2022-08-18T00:14:22.297Z,3.00
2022-08-18T00:19:46.827Z,3.38
2022-08-18T00:24:50.522Z,3.65
2022-08-18T00:29:54.523Z,3.40
2022-08-18T00:34:57.237Z,3.38
2022-08-18T00:39:59.308Z,3.38
2022-08-18T00:45:05.011Z,3.58
2022-08-18T00:50:08.055Z,3.35
2022-08-18T00:55:18.379Z,3.42
2022-08-18T01:00:22.309Z,3.60
2022-08-18T01:05:38.227Z,3.85
2022-08-18T01:10:41.439Z,3.80
2022-08-18T01:15:43.402Z,3.50
2022-08-18T01:21:27.329Z,3.60
2022-08-18T01:26:31.372Z,3.97
2022-08-18T01:31:53.321Z,3.25
2022-08-18T01:36:57.512Z,3.90
2022-08-18T01:41:59.421Z,3.45
2022-08-18T01:47:01.387Z,4.00
2022-08-18T01:52:06.793Z,3.55
2022-08-18T01:57:14.753Z,3.58
2022-08-18T02:02:24.522Z,3.78
2022-08-18T02:07:30.802Z,3.38
2022-08-18T02:12:39.469Z,3.90
2022-08-18T02:17:43.917Z,3.15
2022-08-18T02:22:47.426Z,3.28
2022-08-18T02:27:49.431Z,3.20
2022-08-18T02:32:51.385Z,3.80
2022-08-18T02:37:54.658Z,3.50
2022-08-18T02:42:57.054Z,4.30
2022-08-18T02:47:59.040Z,3.80
2022-08-18T02:53:02.555Z,3.42
2022-08-18T02:58:04.456Z,3.55
2022-08-18T03:03:06.680Z,3.42
2022-08-18T03:08:10.620Z,3.30
2022-08-18T03:13:13.808Z,3.63
2022-08-18T03:18:16.590Z,3.33
2022-08-18T03:23:18.791Z,3.20
2022-08-18T03:28:31.624Z,2.97
2022-08-18T03:33:34.325Z,3.45
2022-08-18T03:38:36.386Z,3.38
2022-08-18T03:43:50.600Z,3.90
2022-08-18T03:48:54.341Z,4.00
2022-08-18T03:54:00.777Z,3.60
2022-08-18T03:59:18.053Z,3.90
2022-08-18T04:04:24.650Z,3.80
2022-08-18T04:09:29.500Z,4.00
2022-08-18T04:14:32.599Z,4.72
2022-08-18T04:19:35.036Z,4.03
2022-08-18T04:24:37.232Z,3.90
2022-08-18T04:29:42.172Z,3.78
2022-08-18T04:34:44.582Z,4.00
2022-08-18T04:39:46.684Z,3.97
2022-08-18T04:44:48.644Z,4.55
2022-08-18T04:49:50.912Z,3.97
2022-08-18T04:54:52.818Z,4.55
2022-08-18T04:59:55.187Z,3.83
2022-08-18T05:04:57.088Z,3.40
2022-08-18T05:10:00.153Z,3.80
2022-08-18T05:15:02.424Z,3.58
2022-08-18T05:20:04.848Z,3.67
2022-08-18T05:25:10.678Z,3.50
2022-08-18T05:30:14.651Z,4.35
2022-08-18T05:35:33.469Z,3.83
2022-08-18T05:40:36.423Z,4.38
2022-08-18T05:45:40.966Z,3.95
2022-08-18T05:50:43.358Z,4.05
2022-08-18T05:56:30.682Z,4.00
2022-08-18T06:01:42.310Z,4.03
2022-08-18T06:06:47.761Z,5.00
2022-08-18T06:11:51.289Z,5.28
2022-08-18T06:17:24.053Z,3.53
2022-08-18T06:22:34.034Z,3.63
2022-08-18T06:27:43.840Z,2.72
2022-08-18T06:33:18.529Z,3.72
2022-08-18T06:38:38.944Z,2.92
2022-08-18T06:43:59.064Z,2.95
2022-08-18T06:49:06.926Z,3.08
2022-08-18T06:54:28.251Z,3.67
2022-08-18T06:59:33.302Z,3.40
2022-08-18T07:04:40.284Z,3.40
2022-08-18T07:09:42.204Z,3.97
2022-08-18T07:14:51.983Z,3.90
2022-08-18T07:20:05.434Z,3.22
2022-08-18T07:25:18.350Z,3.42
2022-08-18T07:30:20.294Z,3.53
2022-08-18T07:35:35.631Z,3.60
2022-08-18T07:40:51.490Z,3.13
2022-08-18T07:45:57.424Z,3.05
2022-08-18T07:51:43.527Z,3.20
2022-08-18T07:57:00.592Z,3.55
2022-08-18T08:02:14.807Z,3.95
2022-08-18T08:07:42.008Z,4.57
2022-08-18T08:13:01.887Z,3.40
2022-08-18T08:18:33.837Z,3.63
2022-08-18T08:23:47.153Z,4.43
2022-08-18T08:29:18.677Z,3.63
2022-08-18T08:34:40.803Z,3.63
2022-08-18T08:39:42.713Z,3.78
2022-08-18T08:45:02.581Z,3.42
2022-08-18T08:50:09.310Z,3.40
2022-08-18T08:55:25.632Z,3.88
2022-08-18T09:00:28.622Z,3.55
2022-08-18T09:05:40.207Z,4.45
2022-08-18T09:11:16.449Z,4.35
2022-08-18T09:16:34.259Z,3.40
2022-08-18T09:21:44.578Z,4.45
2022-08-18T09:32:18.562Z,3.90
2022-08-18T09:37:26.464Z,3.90
2022-08-18T09:43:01.188Z,3.17
2022-08-18T09:48:03.935Z,3.95
2022-08-18T09:53:33.441Z,3.63
2022-08-18T10:04:14.512Z,3.90
2022-08-18T10:09:44.078Z,4.43
2022-08-18T10:15:14.799Z,3.55
2022-08-18T10:21:08.283Z,3.50
2022-08-18T10:26:34.800Z,4.22
2022-08-18T10:31:55.385Z,3.75
2022-08-18T10:37:16.982Z,4.03
2022-08-18T10:42:33.899Z,4.07
2022-08-18T10:47:36.732Z,4.53
2022-08-18T10:53:23.901Z,4.25
2022-08-18T10:58:37.227Z,4.70
2022-08-18T11:09:01.642Z,4.15
2022-08-18T11:14:39.706Z,4.38
2022-08-18T11:19:45.631Z,4.80
2022-08-18T11:24:48.240Z,4.32
2022-08-18T11:29:53.077Z,4.32
2022-08-18T11:34:58.037Z,4.82
2022-08-18T11:40:03.371Z,5.07
2022-08-18T11:45:23.442Z,4.78
2022-08-18T11:50:32.051Z,4.15
2022-08-18T11:55:34.737Z,4.60
2022-08-18T12:00:44.311Z,4.47
2022-08-18T12:05:56.332Z,4.70
2022-08-18T12:11:26.584Z,5.63
2022-08-18T12:16:38.467Z,4.57
2022-08-18T12:21:42.020Z,5.00
2022-08-18T12:26:47.671Z,4.90
2022-08-18T12:31:52.191Z,5.05
2022-08-18T12:36:58.220Z,4.85
2022-08-18T12:42:00.659Z,4.85
2022-08-18T12:47:10.559Z,4.47
2022-08-18T12:57:52.138Z,5.25
2022-08-18T13:02:55.871Z,4.90
2022-08-18T13:08:04.403Z,6.13
2022-08-18T13:13:07.864Z,5.15
2022-08-18T13:18:14.179Z,4.93
2022-08-18T13:23:20.072Z,5.43
2022-08-18T13:28:27.060Z,5.25
2022-08-18T13:33:35.241Z,5.30
2022-08-18T13:38:55.046Z,5.38
2022-08-18T13:43:57.000Z,5.82
2022-08-18T13:49:02.930Z,5.18
2022-08-18T13:54:18.695Z,5.13
2022-08-18T13:59:31.739Z,5.40
2022-08-18T14:04:34.073Z,5.55
2022-08-18T14:09:38.333Z,5.25
2022-08-18T14:14:40.865Z,5.07
2022-08-18T14:20:01.823Z,5.20
2022-08-18T14:25:23.209Z,5.82
2022-08-18T14:30:25.919Z,5.93
2022-08-18T14:35:34.566Z,6.55
2022-08-18T14:40:50.692Z,5.78
2022-08-18T14:45:53.878Z,5.78
2022-08-18T14:51:02.978Z,6.30
2022-08-18T14:56:06.022Z,5.95
2022-08-18T15:01:11.397Z,6.85
2022-08-18T15:06:17.171Z,6.93
2022-08-18T15:11:25.427Z,6.97
2022-08-18T15:16:32.161Z,7.53
2022-08-18T15:21:53.153Z,7.70
2022-08-18T15:27:03.169Z,7.18
2022-08-18T15:32:10.519Z,7.85
2022-08-18T15:37:12.573Z,7.88
2022-08-18T15:42:14.684Z,7.53
2022-08-18T15:47:20.954Z,7.53
2022-08-18T15:52:25.884Z,7.43
2022-08-18T15:57:38.540Z,7.00
2022-08-18T16:02:44.785Z,7.70
2022-08-18T16:07:51.858Z,8.23
2022-08-18T16:12:53.957Z,7.72
2022-08-18T16:17:56.090Z,7.30
2022-08-18T16:22:58.864Z,7.05
2022-08-18T16:28:01.494Z,6.82
2022-08-18T16:33:06.918Z,6.72
2022-08-18T16:38:09.732Z,7.28
2022-08-18T16:43:13.031Z,6.50
2022-08-18T16:48:16.872Z,7.05
2022-08-18T16:53:18.978Z,7.25
2022-08-18T16:58:39.855Z,6.63
2022-08-18T17:04:00.646Z,6.82
2022-08-18T17:09:09.853Z,6.85
2022-08-18T17:14:12.796Z,6.45
2022-08-18T17:19:14.735Z,6.85
2022-08-18T17:24:19.860Z,6.45
2022-08-18T17:30:05.535Z,6.80
2022-08-18T17:35:17.830Z,7.60
2022-08-18T17:40:35.410Z,6.85
2022-08-18T17:45:37.512Z,6.25
2022-08-18T17:51:05.898Z,6.65
2022-08-18T17:56:35.441Z,6.80
2022-08-18T18:01:37.971Z,6.82
2022-08-18T18:06:42.111Z,7.13
2022-08-18T18:11:48.180Z,6.93
2022-08-18T18:17:28.319Z,6.43
2022-08-18T18:22:30.605Z,7.82
2022-08-18T18:27:40.058Z,6.68
2022-08-18T18:32:49.017Z,7.53
2022-08-18T18:38:24.397Z,7.20
2022-08-18T18:43:39.528Z,6.32
2022-08-18T18:48:52.744Z,6.93
2022-08-18T18:54:07.675Z,7.38
2022-08-18T18:59:18.215Z,7.20
2022-08-18T19:04:29.183Z,7.35
2022-08-18T19:09:48.499Z,7.85
2022-08-18T19:15:00.847Z,7.55
2022-08-18T19:20:08.537Z,8.27
2022-08-18T19:25:19.980Z,7.28
2022-08-18T19:30:22.382Z,7.90
2022-08-18T19:35:35.224Z,9.15
2022-08-18T19:40:46.958Z,8.43
2022-08-18T19:45:55.578Z,8.13
2022-08-18T19:51:06.800Z,8.15
2022-08-18T19:56:21.421Z,8.38
2022-08-18T20:01:54.768Z,7.93
2022-08-18T20:07:14.734Z,8.45
2022-08-18T20:12:37.577Z,8.63
2022-08-18T20:17:57.392Z,9.23
2022-08-18T20:23:00.812Z,7.77
2022-08-18T20:28:04.431Z,9.13
2022-08-18T20:33:20.703Z,8.63
2022-08-18T20:38:37.024Z,8.70
2022-08-18T20:43:41.017Z,9.65
2022-08-18T20:48:42.880Z,10.68
2022-08-18T20:53:59.317Z,9.63
2022-08-18T20:59:08.639Z,9.70
2022-08-18T21:04:11.123Z,9.07
2022-08-18T21:09:18.550Z,9.30
2022-08-18T21:14:29.835Z,9.02
2022-08-18T21:19:41.031Z,9.60
2022-08-18T21:24:50.024Z,10.05
2022-08-18T21:29:53.754Z,9.43
2022-08-18T21:34:56.012Z,9.98
2022-08-18T21:40:01.713Z,9.95
2022-08-18T21:45:04.137Z,10.38
2022-08-18T21:50:19.520Z,10.05
2022-08-18T21:55:40.327Z,11.07
2022-08-18T22:06:03.549Z,11.23
2022-08-18T22:11:44.164Z,10.90
2022-08-18T22:17:28.582Z,11.00
2022-08-18T22:22:49.357Z,10.45
2022-08-18T22:27:53.682Z,10.77
2022-08-18T22:32:55.645Z,10.18
2022-08-18T22:37:57.968Z,10.57
2022-08-18T22:42:59.922Z,10.45
2022-08-18T22:48:03.038Z,11.45
2022-08-18T22:53:05.657Z,10.95
2022-08-18T22:58:07.765Z,11.25
2022-08-18T23:03:12.222Z,12.30
2022-08-18T23:08:14.490Z,10.60
2022-08-18T23:13:17.497Z,11.15
2022-08-18T23:18:21.549Z,11.05
2022-08-18T23:23:24.360Z,11.45
2022-08-18T23:28:27.345Z,11.43
2022-08-18T23:33:29.267Z,10.75
2022-08-18T23:38:31.489Z,11.07
2022-08-18T23:43:37.362Z,10.82
2022-08-18T23:48:39.375Z,11.40
2022-08-18T23:53:41.318Z,10.90
2022-08-18T23:58:43.491Z,12.95
